sensor_id;sensor_type;location;lat;lon;timestamp;temperature;humidity
12436;DHT22;6282;51.440;6.938;2023-07-31T00:08:44;16.10;99.90
12436;DHT22;6282;51.440;6.938;2023-07-31T00:11:11;16.40;99.90
12436;DHT22;6282;51.440;6.938;2023-07-31T00:13:39;16.50;99.90
12436;DHT22;6282;51.440;6.938;2023-07-31T00:16:06;16.20;99.90
12436;DHT22;6282;51.440;6.938;2023-07-31T00:18:33;16.40;99.90
12436;DHT22;6282;51.440;6.938;2023-07-31T00:23:27;16.10;99.90
12436;DHT22;6282;51.440;6.938;2023-07-31T00:28:21;16.30;99.90
12436;DHT22;6282;51.440;6.938;2023-07-31T00:30:49;16.40;99.90
12436;DHT22;6282;51.440;6.938;2023-07-31T00:33:16;16.50;99.90
12436;DHT22;6282;51.440;6.938;2023-07-31T00:35:42;16.20;99.90
12436;DHT22;6282;51.440;6.938;2023-07-31T00:38:09;16.40;99.90
12436;DHT22;6282;51.440;6.938;2023-07-31T00:45:31;16.40;99.90
12436;DHT22;6282;51.440;6.938;2023-07-31T00:47:59;16.40;99.90
12436;DHT22;6282;51.440;6.938;2023-07-31T00:50:27;16.40;99.90
12436;DHT22;6282;51.440;6.938;2023-07-31T00:52:54;16.40;99.90
12436;DHT22;6282;51.440;6.938;2023-07-31T00:55:21;16.50;99.90
12436;DHT22;6282;51.440;6.938;2023-07-31T00:57:48;16.20;99.90
12436;DHT22;6282;51.440;6.938;2023-07-31T01:00:15;16.50;99.90
12436;DHT22;6282;51.440;6.938;2023-07-31T01:02:42;16.60;99.90
12436;DHT22;6282;51.440;6.938;2023-07-31T01:05:10;16.40;99.90
12436;DHT22;6282;51.440;6.938;2023-07-31T01:10:21;16.20;99.90
12436;DHT22;6282;51.440;6.938;2023-07-31T01:12:50;16.50;99.90
12436;DHT22;6282;51.440;6.938;2023-07-31T01:15:17;16.60;99.90
12436;DHT22;6282;51.440;6.938;2023-07-31T01:17:44;16.20;99.90
12436;DHT22;6282;51.440;6.938;2023-07-31T01:20:16;16.50;99.90
12436;DHT22;6282;51.440;6.938;2023-07-31T01:22:59;16.40;99.90
12436;DHT22;6282;51.440;6.938;2023-07-31T01:25:52;16.60;99.90
12436;DHT22;6282;51.440;6.938;2023-07-31T01:28:23;16.50;99.90
12436;DHT22;6282;51.440;6.938;2023-07-31T01:30:52;16.20;99.90
12436;DHT22;6282;51.440;6.938;2023-07-31T01:33:22;16.40;99.90
12436;DHT22;6282;51.440;6.938;2023-07-31T01:35:49;16.10;99.90
12436;DHT22;6282;51.440;6.938;2023-07-31T01:38:20;16.50;99.90
12436;DHT22;6282;51.440;6.938;2023-07-31T01:40:51;16.40;99.90
12436;DHT22;6282;51.440;6.938;2023-07-31T01:43:18;16.30;99.90
12436;DHT22;6282;51.440;6.938;2023-07-31T01:45:45;16.40;99.90
12436;DHT22;6282;51.440;6.938;2023-07-31T01:48:11;16.20;99.90
12436;DHT22;6282;51.440;6.938;2023-07-31T01:50:38;16.70;99.90
12436;DHT22;6282;51.440;6.938;2023-07-31T01:53:05;16.40;99.90
12436;DHT22;6282;51.440;6.938;2023-07-31T01:55:32;16.50;99.90
12436;DHT22;6282;51.440;6.938;2023-07-31T01:58:00;16.50;99.90
12436;DHT22;6282;51.440;6.938;2023-07-31T02:00:27;16.30;99.90
12436;DHT22;6282;51.440;6.938;2023-07-31T02:02:54;16.30;99.90
12436;DHT22;6282;51.440;6.938;2023-07-31T02:05:20;16.10;99.90
12436;DHT22;6282;51.440;6.938;2023-07-31T02:07:48;16.60;99.90
12436;DHT22;6282;51.440;6.938;2023-07-31T02:10:15;16.40;99.90
12436;DHT22;6282;51.440;6.938;2023-07-31T02:12:41;16.30;99.90
12436;DHT22;6282;51.440;6.938;2023-07-31T02:15:10;16.60;99.90
12436;DHT22;6282;51.440;6.938;2023-07-31T02:17:37;16.40;99.90
12436;DHT22;6282;51.440;6.938;2023-07-31T02:20:04;16.60;99.90
12436;DHT22;6282;51.440;6.938;2023-07-31T02:22:31;16.20;99.90
12436;DHT22;6282;51.440;6.938;2023-07-31T02:24:58;16.60;99.90
12436;DHT22;6282;51.440;6.938;2023-07-31T02:27:25;16.40;99.90
12436;DHT22;6282;51.440;6.938;2023-07-31T02:29:53;16.20;99.90
12436;DHT22;6282;51.440;6.938;2023-07-31T02:32:21;17.10;99.90
12436;DHT22;6282;51.440;6.938;2023-07-31T02:34:48;16.70;99.90
12436;DHT22;6282;51.440;6.938;2023-07-31T02:37:15;16.50;99.90
12436;DHT22;6282;51.440;6.938;2023-07-31T02:39:41;16.30;99.90
12436;DHT22;6282;51.440;6.938;2023-07-31T02:42:08;16.50;99.90
12436;DHT22;6282;51.440;6.938;2023-07-31T02:44:35;16.30;99.90
12436;DHT22;6282;51.440;6.938;2023-07-31T02:47:02;16.30;99.90
12436;DHT22;6282;51.440;6.938;2023-07-31T02:49:31;16.30;99.90
12436;DHT22;6282;51.440;6.938;2023-07-31T02:51:57;16.20;99.90
12436;DHT22;6282;51.440;6.938;2023-07-31T02:54:24;16.20;99.90
12436;DHT22;6282;51.440;6.938;2023-07-31T02:59:18;16.50;99.90
12436;DHT22;6282;51.440;6.938;2023-07-31T03:04:12;16.20;99.90
12436;DHT22;6282;51.440;6.938;2023-07-31T03:06:40;16.70;99.90
12436;DHT22;6282;51.440;6.938;2023-07-31T03:09:07;16.70;99.90
12436;DHT22;6282;51.440;6.938;2023-07-31T03:11:34;16.60;99.90
12436;DHT22;6282;51.440;6.938;2023-07-31T03:14:01;16.70;99.90
12436;DHT22;6282;51.440;6.938;2023-07-31T03:16:27;16.50;99.90
12436;DHT22;6282;51.440;6.938;2023-07-31T03:18:54;16.50;99.90
12436;DHT22;6282;51.440;6.938;2023-07-31T03:21:21;16.30;99.90
12436;DHT22;6282;51.440;6.938;2023-07-31T03:23:49;16.50;99.90
12436;DHT22;6282;51.440;6.938;2023-07-31T03:26:16;16.30;99.90
12436;DHT22;6282;51.440;6.938;2023-07-31T03:28:43;16.90;99.90
12436;DHT22;6282;51.440;6.938;2023-07-31T03:33:37;16.50;99.90
12436;DHT22;6282;51.440;6.938;2023-07-31T03:36:04;16.70;99.90
12436;DHT22;6282;51.440;6.938;2023-07-31T03:38:31;16.90;99.90
12436;DHT22;6282;51.440;6.938;2023-07-31T03:40:59;16.60;99.90
12436;DHT22;6282;51.440;6.938;2023-07-31T03:43:27;17.00;99.90
12436;DHT22;6282;51.440;6.938;2023-07-31T03:45:54;16.60;99.90
12436;DHT22;6282;51.440;6.938;2023-07-31T03:48:21;16.50;99.90
12436;DHT22;6282;51.440;6.938;2023-07-31T03:50:48;17.00;99.90
12436;DHT22;6282;51.440;6.938;2023-07-31T03:53:15;16.60;99.90
12436;DHT22;6282;51.440;6.938;2023-07-31T03:55:41;16.80;99.90
12436;DHT22;6282;51.440;6.938;2023-07-31T03:58:10;16.70;99.90
12436;DHT22;6282;51.440;6.938;2023-07-31T04:00:37;16.50;99.90
12436;DHT22;6282;51.440;6.938;2023-07-31T04:03:03;17.20;99.90
12436;DHT22;6282;51.440;6.938;2023-07-31T04:05:32;16.80;99.90
12436;DHT22;6282;51.440;6.938;2023-07-31T04:07:59;16.90;99.90
12436;DHT22;6282;51.440;6.938;2023-07-31T04:10:26;16.90;99.90
12436;DHT22;6282;51.440;6.938;2023-07-31T04:12:52;17.10;99.90
12436;DHT22;6282;51.440;6.938;2023-07-31T04:15:20;16.60;99.90
12436;DHT22;6282;51.440;6.938;2023-07-31T04:17:47;17.00;99.90
12436;DHT22;6282;51.440;6.938;2023-07-31T04:20:14;16.90;99.90
12436;DHT22;6282;51.440;6.938;2023-07-31T04:22:41;16.70;99.90
12436;DHT22;6282;51.440;6.938;2023-07-31T04:25:08;16.80;99.90
12436;DHT22;6282;51.440;6.938;2023-07-31T04:30:03;17.20;99.90
12436;DHT22;6282;51.440;6.938;2023-07-31T04:32:31;17.30;99.90
12436;DHT22;6282;51.440;6.938;2023-07-31T04:34:58;16.60;99.90
12436;DHT22;6282;51.440;6.938;2023-07-31T04:37:25;16.90;99.90
12436;DHT22;6282;51.440;6.938;2023-07-31T04:39:52;17.00;99.90
12436;DHT22;6282;51.440;6.938;2023-07-31T04:44:46;16.90;99.90
12436;DHT22;6282;51.440;6.938;2023-07-31T04:47:12;16.60;99.90
12436;DHT22;6282;51.440;6.938;2023-07-31T04:49:41;17.10;99.90
12436;DHT22;6282;51.440;6.938;2023-07-31T04:52:07;16.70;99.90
12436;DHT22;6282;51.440;6.938;2023-07-31T04:54:34;16.60;99.90
12436;DHT22;6282;51.440;6.938;2023-07-31T04:57:01;16.90;99.90
12436;DHT22;6282;51.440;6.938;2023-07-31T04:59:28;16.70;99.90
12436;DHT22;6282;51.440;6.938;2023-07-31T05:01:55;17.00;99.90
12436;DHT22;6282;51.440;6.938;2023-07-31T05:04:22;17.00;99.90
12436;DHT22;6282;51.440;6.938;2023-07-31T05:06:50;17.10;99.90
12436;DHT22;6282;51.440;6.938;2023-07-31T05:09:17;16.90;99.90
12436;DHT22;6282;51.440;6.938;2023-07-31T05:14:11;17.40;99.90
12436;DHT22;6282;51.440;6.938;2023-07-31T05:16:38;17.00;99.90
12436;DHT22;6282;51.440;6.938;2023-07-31T05:19:05;16.90;99.90
12436;DHT22;6282;51.440;6.938;2023-07-31T05:21:32;17.30;99.90
12436;DHT22;6282;51.440;6.938;2023-07-31T05:24:00;17.00;99.90
12436;DHT22;6282;51.440;6.938;2023-07-31T05:26:27;17.40;99.90
12436;DHT22;6282;51.440;6.938;2023-07-31T05:28:54;17.00;99.90
12436;DHT22;6282;51.440;6.938;2023-07-31T05:33:49;17.30;99.90
12436;DHT22;6282;51.440;6.938;2023-07-31T05:36:16;16.50;99.90
12436;DHT22;6282;51.440;6.938;2023-07-31T05:38:43;17.10;99.90
12436;DHT22;6282;51.440;6.938;2023-07-31T05:41:12;16.60;99.90
12436;DHT22;6282;51.440;6.938;2023-07-31T05:43:39;17.00;99.90
12436;DHT22;6282;51.440;6.938;2023-07-31T05:46:06;17.10;99.90
12436;DHT22;6282;51.440;6.938;2023-07-31T05:48:34;17.20;99.90
12436;DHT22;6282;51.440;6.938;2023-07-31T05:51:01;17.20;99.90
12436;DHT22;6282;51.440;6.938;2023-07-31T05:53:29;17.10;99.90
12436;DHT22;6282;51.440;6.938;2023-07-31T05:55:55;16.70;99.90
12436;DHT22;6282;51.440;6.938;2023-07-31T05:58:24;17.20;99.90
12436;DHT22;6282;51.440;6.938;2023-07-31T06:00:50;17.30;99.90
12436;DHT22;6282;51.440;6.938;2023-07-31T06:03:17;17.00;99.90
12436;DHT22;6282;51.440;6.938;2023-07-31T06:05:44;17.30;99.90
12436;DHT22;6282;51.440;6.938;2023-07-31T06:08:11;17.10;99.90
12436;DHT22;6282;51.440;6.938;2023-07-31T06:10:38;17.10;99.90
12436;DHT22;6282;51.440;6.938;2023-07-31T06:13:05;17.60;99.90
12436;DHT22;6282;51.440;6.938;2023-07-31T06:15:33;17.40;99.90
12436;DHT22;6282;51.440;6.938;2023-07-31T06:22:55;17.60;99.90
12436;DHT22;6282;51.440;6.938;2023-07-31T06:25:22;17.10;99.90
12436;DHT22;6282;51.440;6.938;2023-07-31T06:27:49;17.30;99.90
12436;DHT22;6282;51.440;6.938;2023-07-31T06:30:16;17.30;99.90
12436;DHT22;6282;51.440;6.938;2023-07-31T06:32:44;17.40;99.90
12436;DHT22;6282;51.440;6.938;2023-07-31T06:35:11;17.40;99.90
12436;DHT22;6282;51.440;6.938;2023-07-31T06:37:37;16.70;99.90
12436;DHT22;6282;51.440;6.938;2023-07-31T06:40:07;17.20;99.90
12436;DHT22;6282;51.440;6.938;2023-07-31T06:42:34;17.30;99.90
12436;DHT22;6282;51.440;6.938;2023-07-31T06:45:01;16.40;99.90
12436;DHT22;6282;51.440;6.938;2023-07-31T06:47:28;17.20;99.90
12436;DHT22;6282;51.440;6.938;2023-07-31T06:49:57;16.90;99.90
12436;DHT22;6282;51.440;6.938;2023-07-31T06:52:24;17.00;99.90
12436;DHT22;6282;51.440;6.938;2023-07-31T06:55:01;16.70;99.90
12436;DHT22;6282;51.440;6.938;2023-07-31T06:57:29;17.10;99.90
12436;DHT22;6282;51.440;6.938;2023-07-31T06:59:55;16.90;99.90
12436;DHT22;6282;51.440;6.938;2023-07-31T07:02:22;16.60;99.90
12436;DHT22;6282;51.440;6.938;2023-07-31T07:04:49;16.90;99.90
12436;DHT22;6282;51.440;6.938;2023-07-31T07:07:18;16.50;99.90
12436;DHT22;6282;51.440;6.938;2023-07-31T07:09:44;17.00;99.90
12436;DHT22;6282;51.440;6.938;2023-07-31T07:12:11;16.90;99.90
12436;DHT22;6282;51.440;6.938;2023-07-31T07:14:38;16.70;99.90
12436;DHT22;6282;51.440;6.938;2023-07-31T07:17:05;16.60;99.90
12436;DHT22;6282;51.440;6.938;2023-07-31T07:19:32;17.00;99.90
12436;DHT22;6282;51.440;6.938;2023-07-31T07:21:59;16.90;99.90
12436;DHT22;6282;51.440;6.938;2023-07-31T07:24:28;16.90;99.90
12436;DHT22;6282;51.440;6.938;2023-07-31T07:29:22;16.70;99.90
12436;DHT22;6282;51.440;6.938;2023-07-31T07:31:49;16.70;99.90
12436;DHT22;6282;51.440;6.938;2023-07-31T07:34:16;16.90;99.90
12436;DHT22;6282;51.440;6.938;2023-07-31T07:36:43;16.50;99.90
12436;DHT22;6282;51.440;6.938;2023-07-31T07:39:10;16.50;99.90
12436;DHT22;6282;51.440;6.938;2023-07-31T07:41:38;16.70;99.90
12436;DHT22;6282;51.440;6.938;2023-07-31T07:44:05;16.80;99.90
12436;DHT22;6282;51.440;6.938;2023-07-31T07:46:32;16.30;99.90
12436;DHT22;6282;51.440;6.938;2023-07-31T07:48:59;17.00;99.90
12436;DHT22;6282;51.440;6.938;2023-07-31T07:53:56;16.80;99.90
12436;DHT22;6282;51.440;6.938;2023-07-31T07:56:23;17.10;99.90
12436;DHT22;6282;51.440;6.938;2023-07-31T07:58:52;16.80;99.90
12436;DHT22;6282;51.440;6.938;2023-07-31T08:01:19;16.30;99.90
12436;DHT22;6282;51.440;6.938;2023-07-31T08:03:46;16.90;99.90
12436;DHT22;6282;51.440;6.938;2023-07-31T08:06:13;16.80;99.90
12436;DHT22;6282;51.440;6.938;2023-07-31T08:08:41;16.20;99.90
12436;DHT22;6282;51.440;6.938;2023-07-31T08:11:07;16.70;99.90
12436;DHT22;6282;51.440;6.938;2023-07-31T08:13:34;16.50;99.90
12436;DHT22;6282;51.440;6.938;2023-07-31T08:16:03;16.60;99.90
12436;DHT22;6282;51.440;6.938;2023-07-31T08:18:31;17.20;99.90
12436;DHT22;6282;51.440;6.938;2023-07-31T08:20:58;16.60;99.90
12436;DHT22;6282;51.440;6.938;2023-07-31T08:23:24;17.30;99.90
12436;DHT22;6282;51.440;6.938;2023-07-31T08:25:51;16.80;99.90
12436;DHT22;6282;51.440;6.938;2023-07-31T08:28:18;16.70;99.90
12436;DHT22;6282;51.440;6.938;2023-07-31T08:30:45;16.80;99.90
12436;DHT22;6282;51.440;6.938;2023-07-31T08:33:13;16.70;99.90
12436;DHT22;6282;51.440;6.938;2023-07-31T08:35:40;16.40;99.90
12436;DHT22;6282;51.440;6.938;2023-07-31T08:38:07;16.50;99.90
12436;DHT22;6282;51.440;6.938;2023-07-31T08:40:36;16.90;99.90
12436;DHT22;6282;51.440;6.938;2023-07-31T08:43:03;16.60;99.90
12436;DHT22;6282;51.440;6.938;2023-07-31T08:45:31;16.40;99.90
12436;DHT22;6282;51.440;6.938;2023-07-31T08:47:59;16.60;99.90
12436;DHT22;6282;51.440;6.938;2023-07-31T08:50:27;16.70;99.90
12436;DHT22;6282;51.440;6.938;2023-07-31T08:52:54;17.00;99.90
12436;DHT22;6282;51.440;6.938;2023-07-31T08:55:21;16.50;99.90
12436;DHT22;6282;51.440;6.938;2023-07-31T08:57:50;16.60;99.90
12436;DHT22;6282;51.440;6.938;2023-07-31T09:02:51;16.60;99.90
12436;DHT22;6282;51.440;6.938;2023-07-31T09:05:19;16.60;99.90
12436;DHT22;6282;51.440;6.938;2023-07-31T09:07:48;16.70;99.90
12436;DHT22;6282;51.440;6.938;2023-07-31T09:12:43;16.60;99.90
12436;DHT22;6282;51.440;6.938;2023-07-31T09:15:11;16.00;99.90
12436;DHT22;6282;51.440;6.938;2023-07-31T09:20:16;16.50;99.90
12436;DHT22;6282;51.440;6.938;2023-07-31T09:22:44;16.50;99.90
12436;DHT22;6282;51.440;6.938;2023-07-31T09:27:48;16.70;99.90
12436;DHT22;6282;51.440;6.938;2023-07-31T09:32:42;16.80;99.90
12436;DHT22;6282;51.440;6.938;2023-07-31T09:35:20;16.70;99.90
12436;DHT22;6282;51.440;6.938;2023-07-31T09:37:51;16.80;99.90
12436;DHT22;6282;51.440;6.938;2023-07-31T09:40:30;16.70;99.90
12436;DHT22;6282;51.440;6.938;2023-07-31T09:43:26;16.20;99.90
12436;DHT22;6282;51.440;6.938;2023-07-31T09:45:57;16.70;99.90
12436;DHT22;6282;51.440;6.938;2023-07-31T09:48:24;16.30;99.90
12436;DHT22;6282;51.440;6.938;2023-07-31T09:55:58;16.90;99.90
12436;DHT22;6282;51.440;6.938;2023-07-31T10:05:50;16.80;99.90
12436;DHT22;6282;51.440;6.938;2023-07-31T10:13:16;16.90;99.90
12436;DHT22;6282;51.440;6.938;2023-07-31T10:15:44;16.90;99.90
12436;DHT22;6282;51.440;6.938;2023-07-31T10:18:12;17.00;99.90
12436;DHT22;6282;51.440;6.938;2023-07-31T10:20:40;16.80;99.90
12436;DHT22;6282;51.440;6.938;2023-07-31T10:25:37;17.00;99.90
12436;DHT22;6282;51.440;6.938;2023-07-31T10:28:05;17.10;99.90
12436;DHT22;6282;51.440;6.938;2023-07-31T10:30:34;17.50;99.90
12436;DHT22;6282;51.440;6.938;2023-07-31T10:33:04;16.60;99.90
12436;DHT22;6282;51.440;6.938;2023-07-31T10:35:32;16.50;99.90
12436;DHT22;6282;51.440;6.938;2023-07-31T10:38:09;16.70;99.90
12436;DHT22;6282;51.440;6.938;2023-07-31T10:40:37;17.20;99.90
12436;DHT22;6282;51.440;6.938;2023-07-31T10:43:03;17.00;99.90
12436;DHT22;6282;51.440;6.938;2023-07-31T10:45:36;17.10;99.90
12436;DHT22;6282;51.440;6.938;2023-07-31T10:48:04;17.70;99.90
12436;DHT22;6282;51.440;6.938;2023-07-31T10:50:33;17.30;99.90
12436;DHT22;6282;51.440;6.938;2023-07-31T10:53:03;17.40;99.90
12436;DHT22;6282;51.440;6.938;2023-07-31T10:55:33;17.50;99.90
12436;DHT22;6282;51.440;6.938;2023-07-31T10:58:07;17.00;99.90
12436;DHT22;6282;51.440;6.938;2023-07-31T11:00:37;17.30;99.90
12436;DHT22;6282;51.440;6.938;2023-07-31T11:03:05;17.20;99.90
12436;DHT22;6282;51.440;6.938;2023-07-31T11:05:47;17.70;99.90
12436;DHT22;6282;51.440;6.938;2023-07-31T11:08:17;17.90;99.90
12436;DHT22;6282;51.440;6.938;2023-07-31T11:10:45;17.60;99.90
12436;DHT22;6282;51.440;6.938;2023-07-31T11:13:13;17.70;99.90
12436;DHT22;6282;51.440;6.938;2023-07-31T11:15:41;17.20;99.90
12436;DHT22;6282;51.440;6.938;2023-07-31T11:18:08;17.20;99.90
12436;DHT22;6282;51.440;6.938;2023-07-31T11:20:37;17.70;99.90
12436;DHT22;6282;51.440;6.938;2023-07-31T11:23:06;17.80;99.90
12436;DHT22;6282;51.440;6.938;2023-07-31T11:25:34;17.90;99.90
12436;DHT22;6282;51.440;6.938;2023-07-31T11:28:03;17.90;99.90
12436;DHT22;6282;51.440;6.938;2023-07-31T11:33:00;18.40;99.90
12436;DHT22;6282;51.440;6.938;2023-07-31T11:35:29;18.00;99.90
12436;DHT22;6282;51.440;6.938;2023-07-31T11:37:56;18.10;99.90
12436;DHT22;6282;51.440;6.938;2023-07-31T11:42:54;18.50;99.90
12436;DHT22;6282;51.440;6.938;2023-07-31T11:45:25;18.30;99.90
12436;DHT22;6282;51.440;6.938;2023-07-31T11:47:52;18.20;99.90
12436;DHT22;6282;51.440;6.938;2023-07-31T11:50:22;18.40;99.90
12436;DHT22;6282;51.440;6.938;2023-07-31T11:52:52;18.00;99.90
12436;DHT22;6282;51.440;6.938;2023-07-31T11:57:49;18.60;99.90
12436;DHT22;6282;51.440;6.938;2023-07-31T12:00:16;17.80;99.90
12436;DHT22;6282;51.440;6.938;2023-07-31T12:02:44;18.70;99.90
12436;DHT22;6282;51.440;6.938;2023-07-31T12:05:12;18.20;99.90
12436;DHT22;6282;51.440;6.938;2023-07-31T12:07:49;18.50;99.90
12436;DHT22;6282;51.440;6.938;2023-07-31T12:10:27;18.20;99.90
12436;DHT22;6282;51.440;6.938;2023-07-31T12:13:00;18.10;99.90
12436;DHT22;6282;51.440;6.938;2023-07-31T12:15:41;18.00;99.90
12436;DHT22;6282;51.440;6.938;2023-07-31T12:18:10;17.90;99.90
12436;DHT22;6282;51.440;6.938;2023-07-31T12:20:41;18.20;99.90
12436;DHT22;6282;51.440;6.938;2023-07-31T12:23:14;18.00;99.90
12436;DHT22;6282;51.440;6.938;2023-07-31T12:25:41;17.70;99.90
12436;DHT22;6282;51.440;6.938;2023-07-31T12:28:09;17.50;99.90
12436;DHT22;6282;51.440;6.938;2023-07-31T12:30:39;17.70;99.90
12436;DHT22;6282;51.440;6.938;2023-07-31T12:33:10;17.90;99.90
12436;DHT22;6282;51.440;6.938;2023-07-31T12:35:41;17.40;99.90
12436;DHT22;6282;51.440;6.938;2023-07-31T12:38:08;18.20;99.90
12436;DHT22;6282;51.440;6.938;2023-07-31T12:40:38;18.00;99.90
12436;DHT22;6282;51.440;6.938;2023-07-31T12:43:05;17.80;99.90
12436;DHT22;6282;51.440;6.938;2023-07-31T12:45:33;18.40;99.90
12436;DHT22;6282;51.440;6.938;2023-07-31T12:50:27;18.40;99.90
12436;DHT22;6282;51.440;6.938;2023-07-31T13:00:18;18.20;99.90
12436;DHT22;6282;51.440;6.938;2023-07-31T13:05:12;18.30;99.90
12436;DHT22;6282;51.440;6.938;2023-07-31T13:07:39;18.60;99.90
12436;DHT22;6282;51.440;6.938;2023-07-31T13:10:07;18.20;99.90
12436;DHT22;6282;51.440;6.938;2023-07-31T13:15:03;17.90;99.90
12436;DHT22;6282;51.440;6.938;2023-07-31T13:17:30;18.30;99.90
12436;DHT22;6282;51.440;6.938;2023-07-31T13:19:57;18.20;99.90
12436;DHT22;6282;51.440;6.938;2023-07-31T13:22:24;18.30;99.90
12436;DHT22;6282;51.440;6.938;2023-07-31T13:24:51;18.00;99.90
12436;DHT22;6282;51.440;6.938;2023-07-31T13:27:18;18.50;99.90
12436;DHT22;6282;51.440;6.938;2023-07-31T13:34:43;17.20;99.90
12436;DHT22;6282;51.440;6.938;2023-07-31T13:37:10;18.20;99.90
12436;DHT22;6282;51.440;6.938;2023-07-31T13:39:37;18.20;99.90
12436;DHT22;6282;51.440;6.938;2023-07-31T13:42:05;18.90;99.90
12436;DHT22;6282;51.440;6.938;2023-07-31T13:44:33;18.00;99.90
12436;DHT22;6282;51.440;6.938;2023-07-31T13:47:00;18.20;99.90
12436;DHT22;6282;51.440;6.938;2023-07-31T13:49:29;18.00;99.90
12436;DHT22;6282;51.440;6.938;2023-07-31T13:51:58;18.40;99.90
12436;DHT22;6282;51.440;6.938;2023-07-31T13:54:25;18.30;99.90
12436;DHT22;6282;51.440;6.938;2023-07-31T13:56:52;18.50;99.90
12436;DHT22;6282;51.440;6.938;2023-07-31T14:01:48;19.20;99.90
12436;DHT22;6282;51.440;6.938;2023-07-31T14:04:15;19.20;99.90
12436;DHT22;6282;51.440;6.938;2023-07-31T14:06:45;19.60;99.90
12436;DHT22;6282;51.440;6.938;2023-07-31T14:09:13;19.20;99.90
12436;DHT22;6282;51.440;6.938;2023-07-31T14:11:40;19.50;99.90
12436;DHT22;6282;51.440;6.938;2023-07-31T14:14:08;19.30;99.90
12436;DHT22;6282;51.440;6.938;2023-07-31T14:16:35;19.10;99.90
12436;DHT22;6282;51.440;6.938;2023-07-31T14:19:02;19.70;99.90
12436;DHT22;6282;51.440;6.938;2023-07-31T14:21:29;19.60;99.90
12436;DHT22;6282;51.440;6.938;2023-07-31T14:23:57;19.80;99.90
12436;DHT22;6282;51.440;6.938;2023-07-31T14:26:24;20.10;99.90
12436;DHT22;6282;51.440;6.938;2023-07-31T14:33:45;19.40;99.90
12436;DHT22;6282;51.440;6.938;2023-07-31T14:41:08;19.00;99.90
12436;DHT22;6282;51.440;6.938;2023-07-31T14:46:02;18.50;99.90
12436;DHT22;6282;51.440;6.938;2023-07-31T15:15:30;18.20;99.90
12436;DHT22;6282;51.440;6.938;2023-07-31T15:22:51;17.80;99.90
12436;DHT22;6282;51.440;6.938;2023-07-31T15:27:45;18.40;99.90
12436;DHT22;6282;51.440;6.938;2023-07-31T15:32:41;18.40;99.90
12436;DHT22;6282;51.440;6.938;2023-07-31T15:40:08;18.60;99.90
12436;DHT22;6282;51.440;6.938;2023-07-31T15:45:06;18.70;99.90
12436;DHT22;6282;51.440;6.938;2023-07-31T15:50:02;18.70;99.90
12436;DHT22;6282;51.440;6.938;2023-07-31T15:52:29;18.90;99.90
12436;DHT22;6282;51.440;6.938;2023-07-31T16:12:08;17.90;99.90
12436;DHT22;6282;51.440;6.938;2023-07-31T16:17:03;18.10;99.90
12436;DHT22;6282;51.440;6.938;2023-07-31T16:24:26;18.00;99.90
12436;DHT22;6282;51.440;6.938;2023-07-31T17:04:39;17.60;99.90
12436;DHT22;6282;51.440;6.938;2023-07-31T17:07:06;17.90;99.90
12436;DHT22;6282;51.440;6.938;2023-07-31T17:12:02;17.80;99.90
12436;DHT22;6282;51.440;6.938;2023-07-31T17:29:15;17.60;99.90
12436;DHT22;6282;51.440;6.938;2023-07-31T17:36:37;17.50;99.90
12436;DHT22;6282;51.440;6.938;2023-07-31T17:46:26;17.60;99.90
12436;DHT22;6282;51.440;6.938;2023-07-31T18:01:09;17.10;99.90
12436;DHT22;6282;51.440;6.938;2023-07-31T18:03:37;17.20;99.90
12436;DHT22;6282;51.440;6.938;2023-07-31T18:08:31;16.90;99.90
12436;DHT22;6282;51.440;6.938;2023-07-31T18:10:58;17.40;99.90
12436;DHT22;6282;51.440;6.938;2023-07-31T18:20:48;15.50;99.90
12436;DHT22;6282;51.440;6.938;2023-07-31T18:23:15;16.60;99.90
12436;DHT22;6282;51.440;6.938;2023-07-31T18:25:42;16.80;99.90
12436;DHT22;6282;51.440;6.938;2023-07-31T18:52:43;16.80;99.90
12436;DHT22;6282;51.440;6.938;2023-07-31T18:55:12;17.20;99.90
12436;DHT22;6282;51.440;6.938;2023-07-31T19:00:07;17.10;99.90
12436;DHT22;6282;51.440;6.938;2023-07-31T19:12:26;16.80;99.90
12436;DHT22;6282;51.440;6.938;2023-07-31T19:14:53;16.90;99.90
12436;DHT22;6282;51.440;6.938;2023-07-31T19:19:47;17.00;99.90
12436;DHT22;6282;51.440;6.938;2023-07-31T19:22:14;17.50;99.90
12436;DHT22;6282;51.440;6.938;2023-07-31T19:24:40;16.70;99.90
12436;DHT22;6282;51.440;6.938;2023-07-31T19:27:07;17.00;99.90
12436;DHT22;6282;51.440;6.938;2023-07-31T19:29:36;17.00;99.90
12436;DHT22;6282;51.440;6.938;2023-07-31T19:32:03;18.10;99.90
12436;DHT22;6282;51.440;6.938;2023-07-31T19:36:57;17.10;99.90
12436;DHT22;6282;51.440;6.938;2023-07-31T19:41:51;16.90;99.90
12436;DHT22;6282;51.440;6.938;2023-07-31T19:44:18;17.40;99.90
12436;DHT22;6282;51.440;6.938;2023-07-31T19:46:46;17.70;99.90
12436;DHT22;6282;51.440;6.938;2023-07-31T19:49:13;17.70;99.90
12436;DHT22;6282;51.440;6.938;2023-07-31T19:51:39;17.30;99.90
12436;DHT22;6282;51.440;6.938;2023-07-31T19:54:06;17.70;99.90
12436;DHT22;6282;51.440;6.938;2023-07-31T19:56:33;16.70;99.90
12436;DHT22;6282;51.440;6.938;2023-07-31T20:01:27;17.30;99.90
12436;DHT22;6282;51.440;6.938;2023-07-31T20:03:55;16.90;99.90
12436;DHT22;6282;51.440;6.938;2023-07-31T20:06:22;17.00;99.90
12436;DHT22;6282;51.440;6.938;2023-07-31T20:08:49;16.70;99.90
12436;DHT22;6282;51.440;6.938;2023-07-31T20:11:16;17.10;99.90
12436;DHT22;6282;51.440;6.938;2023-07-31T20:13:43;17.70;99.90
12436;DHT22;6282;51.440;6.938;2023-07-31T20:18:37;16.40;99.90
12436;DHT22;6282;51.440;6.938;2023-07-31T20:21:10;17.30;99.90
12436;DHT22;6282;51.440;6.938;2023-07-31T20:23:37;16.70;99.90
12436;DHT22;6282;51.440;6.938;2023-07-31T20:28:33;18.00;99.90
12436;DHT22;6282;51.440;6.938;2023-07-31T20:33:27;17.10;99.90
12436;DHT22;6282;51.440;6.938;2023-07-31T20:35:54;17.40;99.90
12436;DHT22;6282;51.440;6.938;2023-07-31T20:38:22;17.30;99.90
12436;DHT22;6282;51.440;6.938;2023-07-31T20:40:50;17.30;99.90
12436;DHT22;6282;51.440;6.938;2023-07-31T20:45:44;17.80;99.90
12436;DHT22;6282;51.440;6.938;2023-07-31T20:48:11;17.00;99.90
12436;DHT22;6282;51.440;6.938;2023-07-31T20:50:39;17.40;99.90
12436;DHT22;6282;51.440;6.938;2023-07-31T20:55:34;17.60;99.90
12436;DHT22;6282;51.440;6.938;2023-07-31T20:58:01;17.30;99.90
12436;DHT22;6282;51.440;6.938;2023-07-31T21:00:28;17.10;99.90
12436;DHT22;6282;51.440;6.938;2023-07-31T21:02:54;17.00;99.90
12436;DHT22;6282;51.440;6.938;2023-07-31T21:07:48;17.50;99.90
12436;DHT22;6282;51.440;6.938;2023-07-31T21:10:15;16.80;99.90
12436;DHT22;6282;51.440;6.938;2023-07-31T21:12:44;17.30;99.90
12436;DHT22;6282;51.440;6.938;2023-07-31T21:15:11;17.30;99.90
12436;DHT22;6282;51.440;6.938;2023-07-31T21:17:38;17.00;99.90
12436;DHT22;6282;51.440;6.938;2023-07-31T21:20:06;17.50;99.90
12436;DHT22;6282;51.440;6.938;2023-07-31T21:25:00;17.50;99.90
12436;DHT22;6282;51.440;6.938;2023-07-31T21:29:56;17.20;99.90
12436;DHT22;6282;51.440;6.938;2023-07-31T21:32:23;17.60;99.90
12436;DHT22;6282;51.440;6.938;2023-07-31T21:39:44;17.30;99.90
12436;DHT22;6282;51.440;6.938;2023-07-31T21:42:11;17.30;99.90